Terminal Aerodrome Forecast
Issued by NWS Charleston, WV

Home | Current Version | Previous Version | Text Only | Print | Product List | Glossary On
Versions: 1 2 3 4 5 6 7 8 9 10 11 12 13 14 15 16 17 18 19 20 21 22 23 24 25 26 27 28
000
FTUS41 KRLX 221700 RRA
TAFEKN
TAF
KEKN 221741Z 2218/2318 30003KT P6SM SCT019 OVC025
     FM222200 27004KT 4SM -SHRA BR BKN018
     FM230300 00000KT 4SM BR VCTS BKN025CB
     FM230600 00000KT 2SM BR BKN010
     FM230900 00000KT 5SM BR SCT005 BKN015
     FM231400 00000KT P6SM BKN021=

USA.gov is the U.S. government's official web portal to all federal, state and local government web resources and services.